createdAt,value
2023-01-06T00:02:53.469Z,100809.41
2023-01-06T00:07:56.210Z,100813.84
2023-01-06T00:12:58.357Z,100809.84
2023-01-06T00:18:00.603Z,100801.34
2023-01-06T00:23:03.754Z,100788.84
2023-01-06T00:28:05.941Z,100794.47
2023-01-06T00:33:08.235Z,100802.44
2023-01-06T00:38:11.024Z,100789.22
2023-01-06T00:43:13.341Z,100777.81
2023-01-06T00:48:15.953Z,100783.06
2023-01-06T00:53:19.066Z,100772.69
2023-01-06T00:58:21.276Z,100774.88
2023-01-06T01:03:23.498Z,100764.97
2023-01-06T01:08:25.561Z,100763.91
2023-01-06T01:13:27.847Z,100765.53
2023-01-06T01:18:30.225Z,100766.66
2023-01-06T01:23:32.422Z,100765.53
2023-01-06T01:28:35.650Z,100765.63
2023-01-06T01:33:38.424Z,100772.09
2023-01-06T01:38:40.790Z,100776.47
2023-01-06T01:43:51.809Z,100757.59
2023-01-06T01:48:56.335Z,100764.41
2023-01-06T01:54:00.959Z,100764.25
2023-01-06T01:59:12.446Z,100754.25
2023-01-06T02:04:16.153Z,100756.81
2023-01-06T02:09:37.953Z,100750.81
2023-01-06T02:14:40.669Z,100747.09
2023-01-06T02:19:58.149Z,100738.97
2023-01-06T02:25:19.007Z,100735.56
2023-01-06T02:30:52.619Z,100731.28
2023-01-06T02:36:19.230Z,100730.56
2023-01-06T02:42:13.138Z,100731.50
2023-01-06T02:47:19.912Z,100721.16
2023-01-06T02:52:42.827Z,100721.59
2023-01-06T02:57:59.322Z,100707.22
2023-01-06T03:03:13.266Z,100711.75
2023-01-06T03:08:20.796Z,100722.72
2023-01-06T03:13:42.053Z,100705.50
2023-01-06T03:18:47.681Z,100697.03
2023-01-06T03:23:50.068Z,100686.63
2023-01-06T03:28:52.376Z,100685.78
2023-01-06T03:34:07.214Z,100689.25
2023-01-06T03:39:26.844Z,100691.00
2023-01-06T03:44:34.873Z,100677.09
2023-01-06T03:50:10.405Z,100676.38
2023-01-06T03:55:17.370Z,100679.94
2023-01-06T04:00:23.346Z,100675.69
2023-01-06T04:05:33.974Z,100668.16
2023-01-06T04:10:38.101Z,100671.75
2023-01-06T04:15:40.786Z,100666.84
2023-01-06T04:20:44.182Z,100652.03
2023-01-06T04:25:54.568Z,100654.28
2023-01-06T04:31:10.172Z,100646.34
2023-01-06T04:36:12.712Z,100641.59
2023-01-06T04:41:18.951Z,100631.28
2023-01-06T04:46:21.006Z,100612.53
2023-01-06T04:51:23.174Z,100618.81
2023-01-06T04:56:26.785Z,100616.13
2023-01-06T05:01:29.269Z,100593.16
2023-01-06T05:06:31.507Z,100585.69
2023-01-06T05:11:34.271Z,100583.84
2023-01-06T05:16:38.114Z,100591.88
2023-01-06T05:21:41.487Z,100595.63
2023-01-06T05:26:43.834Z,100583.16
2023-01-06T05:31:46.112Z,100583.63
2023-01-06T05:36:48.242Z,100588.44
2023-01-06T05:41:51.644Z,100595.66
2023-01-06T05:46:53.929Z,100585.03
2023-01-06T05:51:56.015Z,100587.66
2023-01-06T05:56:58.260Z,100599.41
2023-01-06T06:02:00.403Z,100591.59
2023-01-06T06:07:02.628Z,100589.00
2023-01-06T06:12:05.180Z,100596.66
2023-01-06T06:17:07.340Z,100582.75
2023-01-06T06:22:10.765Z,100592.56
2023-01-06T06:27:13.016Z,100588.78
2023-01-06T06:32:15.054Z,100585.47
2023-01-06T06:37:18.295Z,100588.09
2023-01-06T06:42:20.735Z,100593.88
2023-01-06T06:47:22.802Z,100571.47
2023-01-06T06:52:25.040Z,100573.44
2023-01-06T06:57:27.146Z,100573.03
2023-01-06T07:02:30.329Z,100586.94
2023-01-06T07:07:32.527Z,100574.28
2023-01-06T07:12:34.604Z,100574.22
2023-01-06T07:17:36.871Z,100569.81
2023-01-06T07:22:39.870Z,100563.09
2023-01-06T07:27:42.004Z,100548.34
2023-01-06T07:32:44.145Z,100556.25
2023-01-06T07:37:46.407Z,100557.19
2023-01-06T07:42:48.716Z,100554.91
2023-01-06T07:47:50.787Z,100560.41
2023-01-06T07:52:53.167Z,100557.31
2023-01-06T07:57:55.440Z,100564.16
2023-01-06T08:02:57.673Z,100566.56
2023-01-06T08:07:59.928Z,100566.63
2023-01-06T08:13:02.097Z,100563.66
2023-01-06T08:18:04.610Z,100563.09
2023-01-06T08:23:07.016Z,100547.47
2023-01-06T08:28:10.042Z,100566.31
2023-01-06T08:33:13.292Z,100582.38
2023-01-06T08:38:15.670Z,100581.34
2023-01-06T08:43:17.890Z,100581.03
2023-01-06T08:48:20.770Z,100615.06
2023-01-06T08:53:24.686Z,100621.88
2023-01-06T08:58:27.216Z,100608.69
2023-01-06T09:03:29.577Z,100605.06
2023-01-06T09:08:32.227Z,100605.00
2023-01-06T09:13:35.282Z,100614.13
2023-01-06T09:18:37.622Z,100612.41
2023-01-06T09:23:39.698Z,100618.66
2023-01-06T09:28:42.228Z,100638.75
2023-01-06T09:33:44.402Z,100648.38
2023-01-06T09:38:47.983Z,100661.72
2023-01-06T09:43:53.616Z,100659.72
2023-01-06T09:49:25.315Z,100662.66
2023-01-06T09:54:36.107Z,100682.25
2023-01-06T09:59:46.834Z,100679.13
2023-01-06T10:04:49.801Z,100681.91
2023-01-06T10:09:57.740Z,100678.63
2023-01-06T10:15:33.698Z,100684.78
2023-01-06T10:20:38.996Z,100695.97
2023-01-06T10:25:45.867Z,100694.09
2023-01-06T10:30:52.232Z,100688.63
2023-01-06T10:35:55.763Z,100692.50
2023-01-06T10:41:05.869Z,100682.41
2023-01-06T10:46:08.293Z,100682.13
2023-01-06T10:51:38.443Z,100669.03
2023-01-06T10:56:47.246Z,100680.44
2023-01-06T11:01:51.805Z,100692.56
2023-01-06T11:07:02.254Z,100695.91
2023-01-06T11:12:10.624Z,100689.75
2023-01-06T11:17:16.447Z,100693.44
2023-01-06T11:22:37.406Z,100689.09
2023-01-06T11:27:39.639Z,100698.72
2023-01-06T11:32:42.270Z,100702.72
2023-01-06T11:37:45.968Z,100687.50
2023-01-06T11:42:49.718Z,100691.72
2023-01-06T11:47:51.875Z,100686.72
2023-01-06T11:53:02.951Z,100689.47
2023-01-06T11:58:19.736Z,100699.00
2023-01-06T12:03:41.847Z,100696.97
2023-01-06T12:08:54.414Z,100703.56
2023-01-06T12:14:13.126Z,100684.69
2023-01-06T12:19:30.724Z,100682.13
2023-01-06T12:24:33.481Z,100686.91
2023-01-06T12:29:36.905Z,100687.41
2023-01-06T12:34:42.619Z,100679.91
2023-01-06T12:39:54.161Z,100681.47
2023-01-06T12:45:49.854Z,100695.84
2023-01-06T12:51:08.055Z,100693.13
2023-01-06T12:56:49.750Z,100693.38
2023-01-06T13:02:25.387Z,100689.22
2023-01-06T13:07:33.731Z,100681.22
2023-01-06T13:12:48.324Z,100670.53
2023-01-06T13:18:14.075Z,100675.41
2023-01-06T13:23:53.520Z,100671.84
2023-01-06T13:29:19.875Z,100686.06
2023-01-06T13:34:26.423Z,100665.31
2023-01-06T13:39:43.916Z,100666.31
2023-01-06T13:44:46.540Z,100654.50
2023-01-06T13:49:48.744Z,100651.47
2023-01-06T13:54:51.068Z,100666.25
2023-01-06T14:00:11.569Z,100658.34
2023-01-06T14:05:22.491Z,100665.06
2023-01-06T14:10:39.347Z,100676.94
2023-01-06T14:15:55.592Z,100662.84
2023-01-06T14:21:04.625Z,100672.66
2023-01-06T14:26:06.829Z,100675.75
2023-01-06T14:31:28.964Z,100689.94
2023-01-06T14:36:32.625Z,100689.09
2023-01-06T14:41:43.398Z,100687.81
2023-01-06T14:46:51.648Z,100680.03
2023-01-06T14:51:56.232Z,100682.13
2023-01-06T14:57:00.527Z,100691.38
2023-01-06T15:02:17.655Z,100694.19
2023-01-06T15:07:22.590Z,100696.75
2023-01-06T15:12:30.460Z,100708.19
2023-01-06T15:17:32.747Z,100703.41
2023-01-06T15:22:35.100Z,100703.59
2023-01-06T15:27:37.265Z,100694.44
2023-01-06T15:32:41.066Z,100692.59
2023-01-06T15:37:44.400Z,100685.25
2023-01-06T15:42:46.576Z,100678.63
2023-01-06T15:47:49.360Z,100696.53
2023-01-06T15:53:04.277Z,100696.75
2023-01-06T15:58:09.522Z,100700.09
2023-01-06T16:03:22.632Z,100700.47
2023-01-06T16:08:26.063Z,100686.28
2023-01-06T16:13:29.537Z,100684.88
2023-01-06T16:18:34.280Z,100688.19
2023-01-06T16:23:38.947Z,100689.84
2023-01-06T16:28:44.008Z,100689.03
2023-01-06T16:33:46.355Z,100687.75
2023-01-06T16:38:49.521Z,100684.56
2023-01-06T16:43:51.639Z,100691.78
2023-01-06T16:49:01.706Z,100709.78
2023-01-06T16:54:10.737Z,100714.00
2023-01-06T16:59:18.025Z,100720.84
2023-01-06T17:04:20.437Z,100722.13
2023-01-06T17:09:23.680Z,100721.22
2023-01-06T17:14:27.596Z,100719.56
2023-01-06T17:19:32.308Z,100717.69
2023-01-06T17:24:35.047Z,100723.50
2023-01-06T17:29:37.890Z,100733.34
2023-01-06T17:34:40.138Z,100727.78
2023-01-06T17:39:44.944Z,100728.78
2023-01-06T17:44:49.271Z,100732.91
2023-01-06T17:50:01.281Z,100726.09
2023-01-06T17:55:25.224Z,100741.19
2023-01-06T18:00:31.840Z,100730.03
2023-01-06T18:05:33.904Z,100739.25
2023-01-06T18:10:42.260Z,100742.69
2023-01-06T18:15:46.401Z,100739.56
2023-01-06T18:21:14.662Z,100731.25
2023-01-06T18:26:29.638Z,100726.97
2023-01-06T18:31:36.833Z,100727.03
2023-01-06T18:36:39.173Z,100725.81
2023-01-06T18:41:41.311Z,100727.13
2023-01-06T18:46:43.404Z,100723.31
2023-01-06T18:51:45.737Z,100725.47
2023-01-06T18:56:47.940Z,100719.50
2023-01-06T19:01:54.744Z,100726.69
2023-01-06T19:06:56.838Z,100732.91
2023-01-06T19:12:06.017Z,100730.13
2023-01-06T19:17:32.825Z,100735.47
2023-01-06T19:22:38.205Z,100731.50
2023-01-06T19:27:50.056Z,100733.66
2023-01-06T19:32:52.404Z,100721.81
2023-01-06T19:37:55.749Z,100725.47
2023-01-06T19:43:09.941Z,100721.69
2023-01-06T19:48:37.459Z,100709.56
2023-01-06T19:53:50.593Z,100705.16
2023-01-06T19:59:01.571Z,100695.47
2023-01-06T20:04:17.095Z,100693.91
2023-01-06T20:09:21.664Z,100704.41
2023-01-06T20:14:23.867Z,100700.47
2023-01-06T20:19:26.001Z,100696.31
2023-01-06T20:24:28.339Z,100697.34
2023-01-06T20:29:30.434Z,100697.75
2023-01-06T20:34:32.526Z,100693.03
2023-01-06T20:39:34.764Z,100700.44
2023-01-06T20:44:36.890Z,100695.69
2023-01-06T20:49:39.391Z,100692.56
2023-01-06T20:54:41.505Z,100689.25
2023-01-06T20:59:43.645Z,100688.09
2023-01-06T21:04:45.752Z,100691.84
2023-01-06T21:09:47.992Z,100686.50
2023-01-06T21:14:50.386Z,100690.66
2023-01-06T21:19:52.714Z,100682.16
2023-01-06T21:24:55.056Z,100690.72
2023-01-06T21:29:57.351Z,100690.56
2023-01-06T21:34:59.415Z,100684.94
2023-01-06T21:40:05.686Z,100676.72
2023-01-06T21:45:08.567Z,100685.13
2023-01-06T21:50:12.244Z,100691.50
2023-01-06T21:55:14.452Z,100695.06
2023-01-06T22:00:17.194Z,100686.06
2023-01-06T22:05:19.306Z,100687.66
2023-01-06T22:10:23.389Z,100683.16
2023-01-06T22:15:26.242Z,100691.88
2023-01-06T22:20:31.048Z,100685.78
2023-01-06T22:25:34.171Z,100693.50
2023-01-06T22:30:36.674Z,100683.88
2023-01-06T22:35:38.958Z,100704.84
2023-01-06T22:40:41.174Z,100698.41
2023-01-06T22:45:43.438Z,100695.97
2023-01-06T22:50:45.754Z,100684.69
2023-01-06T22:55:59.043Z,100682.66
2023-01-06T23:01:01.915Z,100686.25
2023-01-06T23:06:06.309Z,100683.16
2023-01-06T23:11:19.463Z,100684.81
2023-01-06T23:16:22.704Z,100687.75
2023-01-06T23:21:26.812Z,100682.75
2023-01-06T23:26:31.437Z,100684.44
2023-01-06T23:31:36.791Z,100681.91
2023-01-06T23:36:39.423Z,100670.22
2023-01-06T23:41:41.831Z,100664.09
2023-01-06T23:46:44.818Z,100668.44
2023-01-06T23:51:47.048Z,100660.19
2023-01-06T23:56:49.110Z,100651.59
